sensor_id;sensor_type;location;lat;lon;timestamp;temperature;humidity
5041;DHT22;2539;52.568;13.364;2023-11-21T00:02:10;6.70;99.90
5041;DHT22;2539;52.568;13.364;2023-11-21T00:04:37;6.60;99.90
5041;DHT22;2539;52.568;13.364;2023-11-21T00:07:03;6.60;99.90
5041;DHT22;2539;52.568;13.364;2023-11-21T00:09:32;6.50;99.90
5041;DHT22;2539;52.568;13.364;2023-11-21T00:11:58;6.50;99.90
5041;DHT22;2539;52.568;13.364;2023-11-21T00:14:28;6.40;99.90
5041;DHT22;2539;52.568;13.364;2023-11-21T00:16:54;6.40;99.90
5041;DHT22;2539;52.568;13.364;2023-11-21T00:19:21;6.40;99.90
5041;DHT22;2539;52.568;13.364;2023-11-21T00:21:46;6.40;99.90
5041;DHT22;2539;52.568;13.364;2023-11-21T00:24:12;6.40;99.90
5041;DHT22;2539;52.568;13.364;2023-11-21T00:26:40;6.30;99.90
5041;DHT22;2539;52.568;13.364;2023-11-21T00:29:05;6.30;99.90
5041;DHT22;2539;52.568;13.364;2023-11-21T00:31:36;6.20;99.90
5041;DHT22;2539;52.568;13.364;2023-11-21T00:34:03;6.30;99.90
5041;DHT22;2539;52.568;13.364;2023-11-21T00:36:32;6.20;99.90
5041;DHT22;2539;52.568;13.364;2023-11-21T00:38:58;6.20;99.90
5041;DHT22;2539;52.568;13.364;2023-11-21T00:41:25;6.20;99.90
5041;DHT22;2539;52.568;13.364;2023-11-21T00:43:54;6.10;99.90
5041;DHT22;2539;52.568;13.364;2023-11-21T00:46:21;6.10;99.90
5041;DHT22;2539;52.568;13.364;2023-11-21T00:48:47;6.10;99.90
5041;DHT22;2539;52.568;13.364;2023-11-21T00:51:13;6.10;99.90
5041;DHT22;2539;52.568;13.364;2023-11-21T00:53:39;6.00;99.90
5041;DHT22;2539;52.568;13.364;2023-11-21T00:56:05;6.00;99.90
5041;DHT22;2539;52.568;13.364;2023-11-21T00:58:31;6.00;99.90
5041;DHT22;2539;52.568;13.364;2023-11-21T01:00:57;6.00;99.90
5041;DHT22;2539;52.568;13.364;2023-11-21T01:03:32;6.00;99.90
5041;DHT22;2539;52.568;13.364;2023-11-21T01:05:58;6.00;99.90
5041;DHT22;2539;52.568;13.364;2023-11-21T01:08:24;6.10;99.90
5041;DHT22;2539;52.568;13.364;2023-11-21T01:10:50;6.10;99.90
5041;DHT22;2539;52.568;13.364;2023-11-21T01:13:15;6.10;99.90
5041;DHT22;2539;52.568;13.364;2023-11-21T01:15:42;6.20;99.90
5041;DHT22;2539;52.568;13.364;2023-11-21T01:18:09;6.10;99.90
5041;DHT22;2539;52.568;13.364;2023-11-21T01:20:35;6.00;99.90
5041;DHT22;2539;52.568;13.364;2023-11-21T01:23:00;6.00;99.90
5041;DHT22;2539;52.568;13.364;2023-11-21T01:25:26;6.00;99.90
5041;DHT22;2539;52.568;13.364;2023-11-21T01:27:52;6.00;99.90
5041;DHT22;2539;52.568;13.364;2023-11-21T01:30:18;6.00;99.90
5041;DHT22;2539;52.568;13.364;2023-11-21T01:32:49;5.90;99.90
5041;DHT22;2539;52.568;13.364;2023-11-21T01:35:16;5.90;99.90
5041;DHT22;2539;52.568;13.364;2023-11-21T01:37:42;5.90;99.90
5041;DHT22;2539;52.568;13.364;2023-11-21T01:40:09;5.90;99.90
5041;DHT22;2539;52.568;13.364;2023-11-21T01:42:40;5.90;99.90
5041;DHT22;2539;52.568;13.364;2023-11-21T01:45:07;5.90;99.90
5041;DHT22;2539;52.568;13.364;2023-11-21T01:47:33;5.90;99.90
5041;DHT22;2539;52.568;13.364;2023-11-21T01:50:00;5.90;99.90
5041;DHT22;2539;52.568;13.364;2023-11-21T01:52:27;5.80;99.90
5041;DHT22;2539;52.568;13.364;2023-11-21T01:54:53;5.80;99.90
5041;DHT22;2539;52.568;13.364;2023-11-21T01:57:20;5.80;99.90
5041;DHT22;2539;52.568;13.364;2023-11-21T01:59:48;5.80;99.90
5041;DHT22;2539;52.568;13.364;2023-11-21T02:02:14;5.80;99.90
5041;DHT22;2539;52.568;13.364;2023-11-21T02:04:41;5.80;99.90
5041;DHT22;2539;52.568;13.364;2023-11-21T02:07:07;5.80;99.90
5041;DHT22;2539;52.568;13.364;2023-11-21T02:09:33;5.80;99.90
5041;DHT22;2539;52.568;13.364;2023-11-21T02:12:02;5.60;99.90
5041;DHT22;2539;52.568;13.364;2023-11-21T02:14:28;5.70;99.90
5041;DHT22;2539;52.568;13.364;2023-11-21T02:16:55;5.60;99.90
5041;DHT22;2539;52.568;13.364;2023-11-21T02:19:23;5.60;99.90
5041;DHT22;2539;52.568;13.364;2023-11-21T02:21:52;5.60;99.90
5041;DHT22;2539;52.568;13.364;2023-11-21T02:24:22;5.60;99.90
5041;DHT22;2539;52.568;13.364;2023-11-21T02:26:49;5.60;99.90
5041;DHT22;2539;52.568;13.364;2023-11-21T02:29:19;5.60;99.90
5041;DHT22;2539;52.568;13.364;2023-11-21T02:31:52;5.60;99.90
5041;DHT22;2539;52.568;13.364;2023-11-21T02:34:21;5.80;99.90
5041;DHT22;2539;52.568;13.364;2023-11-21T02:36:47;5.60;99.90
5041;DHT22;2539;52.568;13.364;2023-11-21T02:39:17;5.60;99.90
5041;DHT22;2539;52.568;13.364;2023-11-21T02:41:43;5.60;99.90
5041;DHT22;2539;52.568;13.364;2023-11-21T02:44:10;5.60;99.90
5041;DHT22;2539;52.568;13.364;2023-11-21T02:46:36;5.50;99.90
5041;DHT22;2539;52.568;13.364;2023-11-21T02:49:03;5.70;99.90
5041;DHT22;2539;52.568;13.364;2023-11-21T02:51:30;5.60;99.90
5041;DHT22;2539;52.568;13.364;2023-11-21T02:53:56;5.60;99.90
5041;DHT22;2539;52.568;13.364;2023-11-21T02:56:25;5.50;99.90
5041;DHT22;2539;52.568;13.364;2023-11-21T02:58:55;5.50;99.90
5041;DHT22;2539;52.568;13.364;2023-11-21T03:01:21;5.60;99.90
5041;DHT22;2539;52.568;13.364;2023-11-21T03:03:47;5.50;99.90
5041;DHT22;2539;52.568;13.364;2023-11-21T03:06:17;5.50;99.90
5041;DHT22;2539;52.568;13.364;2023-11-21T03:08:43;5.40;99.90
5041;DHT22;2539;52.568;13.364;2023-11-21T03:11:09;5.50;99.90
5041;DHT22;2539;52.568;13.364;2023-11-21T03:13:35;5.40;99.90
5041;DHT22;2539;52.568;13.364;2023-11-21T03:16:01;5.30;99.90
5041;DHT22;2539;52.568;13.364;2023-11-21T03:18:27;5.40;99.90
5041;DHT22;2539;52.568;13.364;2023-11-21T03:20:55;5.40;99.90
5041;DHT22;2539;52.568;13.364;2023-11-21T03:23:21;5.40;99.90
5041;DHT22;2539;52.568;13.364;2023-11-21T03:25:48;5.40;99.90
5041;DHT22;2539;52.568;13.364;2023-11-21T03:28:14;5.40;99.90
5041;DHT22;2539;52.568;13.364;2023-11-21T03:30:40;5.40;99.90
5041;DHT22;2539;52.568;13.364;2023-11-21T03:33:05;5.40;99.90
5041;DHT22;2539;52.568;13.364;2023-11-21T03:35:31;5.40;99.90
5041;DHT22;2539;52.568;13.364;2023-11-21T03:37:57;5.30;99.90
5041;DHT22;2539;52.568;13.364;2023-11-21T03:40:23;5.30;99.90
5041;DHT22;2539;52.568;13.364;2023-11-21T03:42:50;5.30;99.90
5041;DHT22;2539;52.568;13.364;2023-11-21T03:45:16;5.30;99.90
5041;DHT22;2539;52.568;13.364;2023-11-21T03:47:43;6.00;99.90
5041;DHT22;2539;52.568;13.364;2023-11-21T03:50:09;5.30;99.90
5041;DHT22;2539;52.568;13.364;2023-11-21T03:52:37;5.40;99.90
5041;DHT22;2539;52.568;13.364;2023-11-21T03:55:04;5.40;99.90
5041;DHT22;2539;52.568;13.364;2023-11-21T03:57:30;5.30;99.90
5041;DHT22;2539;52.568;13.364;2023-11-21T03:59:57;5.40;99.90
5041;DHT22;2539;52.568;13.364;2023-11-21T04:02:23;5.40;99.90
5041;DHT22;2539;52.568;13.364;2023-11-21T04:04:52;5.30;99.90
5041;DHT22;2539;52.568;13.364;2023-11-21T04:07:18;5.30;99.90
5041;DHT22;2539;52.568;13.364;2023-11-21T04:09:44;5.30;99.90
5041;DHT22;2539;52.568;13.364;2023-11-21T04:12:10;5.40;99.90
5041;DHT22;2539;52.568;13.364;2023-11-21T04:14:38;5.30;99.90
5041;DHT22;2539;52.568;13.364;2023-11-21T04:17:04;5.30;99.90
5041;DHT22;2539;52.568;13.364;2023-11-21T04:19:30;5.40;99.90
5041;DHT22;2539;52.568;13.364;2023-11-21T04:21:57;5.40;99.90
5041;DHT22;2539;52.568;13.364;2023-11-21T04:24:23;5.40;99.90
5041;DHT22;2539;52.568;13.364;2023-11-21T04:26:50;5.40;99.90
5041;DHT22;2539;52.568;13.364;2023-11-21T04:29:16;5.40;99.90
5041;DHT22;2539;52.568;13.364;2023-11-21T04:31:42;5.50;99.90
5041;DHT22;2539;52.568;13.364;2023-11-21T04:34:09;5.40;99.90
5041;DHT22;2539;52.568;13.364;2023-11-21T04:36:35;5.50;99.90
5041;DHT22;2539;52.568;13.364;2023-11-21T04:39:01;5.50;99.90
5041;DHT22;2539;52.568;13.364;2023-11-21T04:41:27;5.40;99.90
5041;DHT22;2539;52.568;13.364;2023-11-21T04:43:53;5.40;99.90
5041;DHT22;2539;52.568;13.364;2023-11-21T04:46:20;5.50;99.90
5041;DHT22;2539;52.568;13.364;2023-11-21T04:48:46;5.50;99.90
5041;DHT22;2539;52.568;13.364;2023-11-21T04:51:13;5.50;99.90
5041;DHT22;2539;52.568;13.364;2023-11-21T04:53:39;5.50;99.90
5041;DHT22;2539;52.568;13.364;2023-11-21T04:56:05;5.50;99.90
5041;DHT22;2539;52.568;13.364;2023-11-21T04:58:32;5.50;99.90
5041;DHT22;2539;52.568;13.364;2023-11-21T05:00:59;5.40;99.90
5041;DHT22;2539;52.568;13.364;2023-11-21T05:03:25;5.40;99.90
5041;DHT22;2539;52.568;13.364;2023-11-21T05:05:52;5.40;99.90
5041;DHT22;2539;52.568;13.364;2023-11-21T05:08:18;5.40;99.90
5041;DHT22;2539;52.568;13.364;2023-11-21T05:10:46;5.50;99.90
5041;DHT22;2539;52.568;13.364;2023-11-21T05:13:12;5.40;99.90
5041;DHT22;2539;52.568;13.364;2023-11-21T05:15:38;5.40;99.90
5041;DHT22;2539;52.568;13.364;2023-11-21T05:18:05;5.40;99.90
5041;DHT22;2539;52.568;13.364;2023-11-21T05:20:32;5.30;99.90
5041;DHT22;2539;52.568;13.364;2023-11-21T05:22:59;5.40;99.90
5041;DHT22;2539;52.568;13.364;2023-11-21T05:25:25;5.30;99.90
5041;DHT22;2539;52.568;13.364;2023-11-21T05:27:51;5.30;99.90
5041;DHT22;2539;52.568;13.364;2023-11-21T05:30:19;5.30;99.90
5041;DHT22;2539;52.568;13.364;2023-11-21T05:32:45;5.30;99.90
5041;DHT22;2539;52.568;13.364;2023-11-21T05:35:12;5.30;99.90
5041;DHT22;2539;52.568;13.364;2023-11-21T05:37:42;5.30;99.90
5041;DHT22;2539;52.568;13.364;2023-11-21T05:40:09;5.20;99.90
5041;DHT22;2539;52.568;13.364;2023-11-21T05:42:36;5.30;99.90
5041;DHT22;2539;52.568;13.364;2023-11-21T05:45:04;5.20;99.90
5041;DHT22;2539;52.568;13.364;2023-11-21T05:47:41;5.20;99.90
5041;DHT22;2539;52.568;13.364;2023-11-21T05:50:11;5.20;99.90
5041;DHT22;2539;52.568;13.364;2023-11-21T05:52:38;5.20;99.90
5041;DHT22;2539;52.568;13.364;2023-11-21T05:55:08;5.20;99.90
5041;DHT22;2539;52.568;13.364;2023-11-21T05:57:35;5.20;99.90
5041;DHT22;2539;52.568;13.364;2023-11-21T06:00:04;5.20;99.90
5041;DHT22;2539;52.568;13.364;2023-11-21T06:02:40;5.10;99.90
5041;DHT22;2539;52.568;13.364;2023-11-21T06:05:07;5.20;99.90
5041;DHT22;2539;52.568;13.364;2023-11-21T06:07:34;5.20;99.90
5041;DHT22;2539;52.568;13.364;2023-11-21T06:10:05;5.20;99.90
5041;DHT22;2539;52.568;13.364;2023-11-21T06:12:39;5.10;99.90
5041;DHT22;2539;52.568;13.364;2023-11-21T06:15:06;5.10;99.90
5041;DHT22;2539;52.568;13.364;2023-11-21T06:17:35;5.10;99.90
5041;DHT22;2539;52.568;13.364;2023-11-21T06:20:03;5.10;99.90
5041;DHT22;2539;52.568;13.364;2023-11-21T06:22:36;5.10;99.90
5041;DHT22;2539;52.568;13.364;2023-11-21T06:25:03;5.10;99.90
5041;DHT22;2539;52.568;13.364;2023-11-21T06:27:32;5.10;99.90
5041;DHT22;2539;52.568;13.364;2023-11-21T06:29:59;5.10;99.90
5041;DHT22;2539;52.568;13.364;2023-11-21T06:32:25;5.10;99.90
5041;DHT22;2539;52.568;13.364;2023-11-21T06:34:52;5.10;99.90
5041;DHT22;2539;52.568;13.364;2023-11-21T06:37:21;5.10;99.90
5041;DHT22;2539;52.568;13.364;2023-11-21T06:39:49;5.10;99.90
5041;DHT22;2539;52.568;13.364;2023-11-21T06:42:18;5.10;99.90
5041;DHT22;2539;52.568;13.364;2023-11-21T06:44:48;5.10;99.90
5041;DHT22;2539;52.568;13.364;2023-11-21T06:47:15;5.10;99.90
5041;DHT22;2539;52.568;13.364;2023-11-21T06:49:42;5.20;99.90
5041;DHT22;2539;52.568;13.364;2023-11-21T06:52:09;5.10;99.90
5041;DHT22;2539;52.568;13.364;2023-11-21T06:54:36;5.10;99.90
5041;DHT22;2539;52.568;13.364;2023-11-21T06:57:03;5.00;99.90
5041;DHT22;2539;52.568;13.364;2023-11-21T06:59:29;5.00;99.90
5041;DHT22;2539;52.568;13.364;2023-11-21T07:01:54;5.00;99.90
5041;DHT22;2539;52.568;13.364;2023-11-21T07:04:20;5.00;99.90
5041;DHT22;2539;52.568;13.364;2023-11-21T07:06:46;5.00;99.90
5041;DHT22;2539;52.568;13.364;2023-11-21T07:09:12;5.00;99.90
5041;DHT22;2539;52.568;13.364;2023-11-21T07:11:39;5.00;99.90
5041;DHT22;2539;52.568;13.364;2023-11-21T07:14:05;5.00;99.90
5041;DHT22;2539;52.568;13.364;2023-11-21T07:16:36;5.00;99.90
5041;DHT22;2539;52.568;13.364;2023-11-21T07:19:04;5.10;99.90
5041;DHT22;2539;52.568;13.364;2023-11-21T07:21:34;5.10;99.90
5041;DHT22;2539;52.568;13.364;2023-11-21T07:24:02;5.00;99.90
5041;DHT22;2539;52.568;13.364;2023-11-21T07:26:30;5.10;99.90
5041;DHT22;2539;52.568;13.364;2023-11-21T07:28:56;5.00;99.90
5041;DHT22;2539;52.568;13.364;2023-11-21T07:31:23;5.00;99.90
5041;DHT22;2539;52.568;13.364;2023-11-21T07:33:50;5.00;99.90
5041;DHT22;2539;52.568;13.364;2023-11-21T07:36:17;5.00;99.90
5041;DHT22;2539;52.568;13.364;2023-11-21T07:38:47;5.00;99.90
5041;DHT22;2539;52.568;13.364;2023-11-21T07:41:14;5.00;99.90
5041;DHT22;2539;52.568;13.364;2023-11-21T07:43:44;5.20;99.90
5041;DHT22;2539;52.568;13.364;2023-11-21T07:46:12;5.00;99.90
5041;DHT22;2539;52.568;13.364;2023-11-21T07:48:39;5.00;99.90
5041;DHT22;2539;52.568;13.364;2023-11-21T07:51:06;5.00;99.90
5041;DHT22;2539;52.568;13.364;2023-11-21T07:53:35;5.00;99.90
5041;DHT22;2539;52.568;13.364;2023-11-21T07:56:06;5.10;99.90
5041;DHT22;2539;52.568;13.364;2023-11-21T07:58:34;5.00;99.90
5041;DHT22;2539;52.568;13.364;2023-11-21T08:01:02;5.00;99.90
5041;DHT22;2539;52.568;13.364;2023-11-21T08:03:29;5.00;99.90
5041;DHT22;2539;52.568;13.364;2023-11-21T08:05:57;5.10;99.90
5041;DHT22;2539;52.568;13.364;2023-11-21T08:08:24;5.10;99.90
5041;DHT22;2539;52.568;13.364;2023-11-21T08:10:51;5.10;99.90
5041;DHT22;2539;52.568;13.364;2023-11-21T08:13:28;5.00;99.90
5041;DHT22;2539;52.568;13.364;2023-11-21T08:15:55;5.00;99.90
5041;DHT22;2539;52.568;13.364;2023-11-21T08:18:22;5.00;99.90
5041;DHT22;2539;52.568;13.364;2023-11-21T08:20:48;5.00;99.90
5041;DHT22;2539;52.568;13.364;2023-11-21T08:23:15;4.90;99.90
5041;DHT22;2539;52.568;13.364;2023-11-21T08:25:44;4.90;99.90
5041;DHT22;2539;52.568;13.364;2023-11-21T08:28:12;4.80;99.90
5041;DHT22;2539;52.568;13.364;2023-11-21T08:30:40;4.80;99.90
5041;DHT22;2539;52.568;13.364;2023-11-21T08:33:08;4.80;99.90
5041;DHT22;2539;52.568;13.364;2023-11-21T08:35:40;4.90;99.90
5041;DHT22;2539;52.568;13.364;2023-11-21T08:38:06;5.00;99.90
5041;DHT22;2539;52.568;13.364;2023-11-21T08:40:32;5.00;99.90
5041;DHT22;2539;52.568;13.364;2023-11-21T08:42:58;5.00;99.90
5041;DHT22;2539;52.568;13.364;2023-11-21T08:45:25;5.00;99.90
5041;DHT22;2539;52.568;13.364;2023-11-21T08:47:54;5.00;99.90
5041;DHT22;2539;52.568;13.364;2023-11-21T08:50:21;5.10;99.90
5041;DHT22;2539;52.568;13.364;2023-11-21T08:52:47;5.10;99.90
5041;DHT22;2539;52.568;13.364;2023-11-21T08:55:14;5.10;99.90
5041;DHT22;2539;52.568;13.364;2023-11-21T08:57:41;5.10;99.90
5041;DHT22;2539;52.568;13.364;2023-11-21T09:00:08;5.10;99.90
5041;DHT22;2539;52.568;13.364;2023-11-21T09:02:37;5.10;99.90
5041;DHT22;2539;52.568;13.364;2023-11-21T09:05:06;4.90;99.90
5041;DHT22;2539;52.568;13.364;2023-11-21T09:07:33;4.90;99.90
5041;DHT22;2539;52.568;13.364;2023-11-21T09:09:59;4.90;99.90
5041;DHT22;2539;52.568;13.364;2023-11-21T09:12:26;4.90;99.90
5041;DHT22;2539;52.568;13.364;2023-11-21T09:14:52;4.90;99.90
5041;DHT22;2539;52.568;13.364;2023-11-21T09:17:18;5.00;99.90
5041;DHT22;2539;52.568;13.364;2023-11-21T09:19:44;5.00;99.90
5041;DHT22;2539;52.568;13.364;2023-11-21T09:22:16;5.10;99.90
5041;DHT22;2539;52.568;13.364;2023-11-21T09:24:42;5.00;99.90
5041;DHT22;2539;52.568;13.364;2023-11-21T09:27:09;5.20;99.90
5041;DHT22;2539;52.568;13.364;2023-11-21T09:29:35;5.10;99.90
5041;DHT22;2539;52.568;13.364;2023-11-21T09:32:02;5.00;99.90
5041;DHT22;2539;52.568;13.364;2023-11-21T09:34:29;5.00;99.90
5041;DHT22;2539;52.568;13.364;2023-11-21T09:36:54;5.00;99.90
5041;DHT22;2539;52.568;13.364;2023-11-21T09:39:21;5.00;99.90
5041;DHT22;2539;52.568;13.364;2023-11-21T09:41:52;5.00;99.90
5041;DHT22;2539;52.568;13.364;2023-11-21T09:47:23;5.00;99.90
5041;DHT22;2539;52.568;13.364;2023-11-21T09:49:49;4.90;99.90
5041;DHT22;2539;52.568;13.364;2023-11-21T09:52:25;4.90;99.90
5041;DHT22;2539;52.568;13.364;2023-11-21T09:54:52;4.90;99.90
5041;DHT22;2539;52.568;13.364;2023-11-21T09:57:20;4.80;99.90
5041;DHT22;2539;52.568;13.364;2023-11-21T09:59:51;4.80;99.90
5041;DHT22;2539;52.568;13.364;2023-11-21T10:02:17;4.80;99.90
5041;DHT22;2539;52.568;13.364;2023-11-21T10:04:45;4.80;99.90
5041;DHT22;2539;52.568;13.364;2023-11-21T10:07:12;4.80;99.90
5041;DHT22;2539;52.568;13.364;2023-11-21T10:09:41;4.80;99.90
5041;DHT22;2539;52.568;13.364;2023-11-21T10:12:10;4.70;99.90
5041;DHT22;2539;52.568;13.364;2023-11-21T10:14:41;4.80;99.90
5041;DHT22;2539;52.568;13.364;2023-11-21T10:17:08;4.80;99.90
5041;DHT22;2539;52.568;13.364;2023-11-21T10:19:37;4.80;99.90
5041;DHT22;2539;52.568;13.364;2023-11-21T10:22:05;4.70;99.90
5041;DHT22;2539;52.568;13.364;2023-11-21T10:24:33;4.80;99.90
5041;DHT22;2539;52.568;13.364;2023-11-21T10:26:59;4.60;99.90
5041;DHT22;2539;52.568;13.364;2023-11-21T10:29:31;4.60;99.90
5041;DHT22;2539;52.568;13.364;2023-11-21T10:32:04;4.60;99.90
5041;DHT22;2539;52.568;13.364;2023-11-21T10:34:31;4.60;99.90
5041;DHT22;2539;52.568;13.364;2023-11-21T10:37:12;4.60;99.90
5041;DHT22;2539;52.568;13.364;2023-11-21T10:39:39;4.70;99.90
5041;DHT22;2539;52.568;13.364;2023-11-21T10:42:08;4.70;99.90
5041;DHT22;2539;52.568;13.364;2023-11-21T10:44:34;4.80;99.90
5041;DHT22;2539;52.568;13.364;2023-11-21T10:47:00;4.80;99.90
5041;DHT22;2539;52.568;13.364;2023-11-21T10:49:27;4.70;99.90
5041;DHT22;2539;52.568;13.364;2023-11-21T10:51:54;4.60;99.90
5041;DHT22;2539;52.568;13.364;2023-11-21T10:54:21;4.50;99.90
5041;DHT22;2539;52.568;13.364;2023-11-21T10:56:56;4.40;99.90
5041;DHT22;2539;52.568;13.364;2023-11-21T10:59:23;4.40;99.90
5041;DHT22;2539;52.568;13.364;2023-11-21T11:01:51;4.30;99.90
5041;DHT22;2539;52.568;13.364;2023-11-21T11:04:19;4.20;99.90
5041;DHT22;2539;52.568;13.364;2023-11-21T11:06:54;4.10;99.90
5041;DHT22;2539;52.568;13.364;2023-11-21T11:09:20;4.00;99.90
5041;DHT22;2539;52.568;13.364;2023-11-21T11:11:47;4.00;99.90
5041;DHT22;2539;52.568;13.364;2023-11-21T11:14:14;4.10;99.90
5041;DHT22;2539;52.568;13.364;2023-11-21T11:16:41;4.00;99.90
5041;DHT22;2539;52.568;13.364;2023-11-21T11:19:08;4.00;99.90
5041;DHT22;2539;52.568;13.364;2023-11-21T11:24:44;3.80;99.90
5041;DHT22;2539;52.568;13.364;2023-11-21T11:30:20;3.70;99.90
5041;DHT22;2539;52.568;13.364;2023-11-21T11:36:22;3.60;99.90
5041;DHT22;2539;52.568;13.364;2023-11-21T11:38:49;3.70;99.90
5041;DHT22;2539;52.568;13.364;2023-11-21T11:41:25;3.70;99.90
5041;DHT22;2539;52.568;13.364;2023-11-21T11:43:53;3.80;99.90
5041;DHT22;2539;52.568;13.364;2023-11-21T11:46:20;3.80;99.90
5041;DHT22;2539;52.568;13.364;2023-11-21T11:49:02;3.80;99.90
5041;DHT22;2539;52.568;13.364;2023-11-21T11:51:29;3.80;99.90
5041;DHT22;2539;52.568;13.364;2023-11-21T11:53:57;3.90;99.90
5041;DHT22;2539;52.568;13.364;2023-11-21T11:56:28;3.80;99.90
5041;DHT22;2539;52.568;13.364;2023-11-21T11:58:58;3.90;99.90
5041;DHT22;2539;52.568;13.364;2023-11-21T12:01:26;4.00;99.90
5041;DHT22;2539;52.568;13.364;2023-11-21T12:04:23;4.00;99.90
5041;DHT22;2539;52.568;13.364;2023-11-21T12:06:52;4.00;99.90
5041;DHT22;2539;52.568;13.364;2023-11-21T12:09:20;4.00;99.90
5041;DHT22;2539;52.568;13.364;2023-11-21T12:11:48;4.00;99.90
5041;DHT22;2539;52.568;13.364;2023-11-21T12:14:15;4.00;99.90
5041;DHT22;2539;52.568;13.364;2023-11-21T12:16:42;4.00;99.90
5041;DHT22;2539;52.568;13.364;2023-11-21T12:19:13;4.00;99.90
5041;DHT22;2539;52.568;13.364;2023-11-21T12:21:39;3.90;99.90
5041;DHT22;2539;52.568;13.364;2023-11-21T12:24:09;3.90;99.90
5041;DHT22;2539;52.568;13.364;2023-11-21T12:26:35;4.00;99.90
5041;DHT22;2539;52.568;13.364;2023-11-21T12:29:05;3.90;99.90
5041;DHT22;2539;52.568;13.364;2023-11-21T12:31:34;3.70;99.90
5041;DHT22;2539;52.568;13.364;2023-11-21T12:34:01;3.70;99.90
5041;DHT22;2539;52.568;13.364;2023-11-21T12:36:27;3.80;99.90
5041;DHT22;2539;52.568;13.364;2023-11-21T12:38:56;3.90;99.90
5041;DHT22;2539;52.568;13.364;2023-11-21T12:41:23;3.90;99.90
5041;DHT22;2539;52.568;13.364;2023-11-21T12:43:49;3.80;99.90
5041;DHT22;2539;52.568;13.364;2023-11-21T12:46:16;3.80;99.90
5041;DHT22;2539;52.568;13.364;2023-11-21T12:48:44;3.90;99.90
5041;DHT22;2539;52.568;13.364;2023-11-21T12:51:12;3.90;99.90
5041;DHT22;2539;52.568;13.364;2023-11-21T12:53:40;3.90;99.90
5041;DHT22;2539;52.568;13.364;2023-11-21T12:56:11;3.90;99.90
5041;DHT22;2539;52.568;13.364;2023-11-21T12:58:39;3.80;99.90
5041;DHT22;2539;52.568;13.364;2023-11-21T13:01:06;3.80;99.90
5041;DHT22;2539;52.568;13.364;2023-11-21T13:03:38;3.80;99.90
5041;DHT22;2539;52.568;13.364;2023-11-21T13:06:06;3.80;99.90
5041;DHT22;2539;52.568;13.364;2023-11-21T13:08:34;3.80;99.90
5041;DHT22;2539;52.568;13.364;2023-11-21T13:11:00;3.80;99.90
5041;DHT22;2539;52.568;13.364;2023-11-21T13:13:29;3.80;99.90
5041;DHT22;2539;52.568;13.364;2023-11-21T13:16:00;3.80;99.90
5041;DHT22;2539;52.568;13.364;2023-11-21T13:18:28;3.70;99.90
5041;DHT22;2539;52.568;13.364;2023-11-21T13:20:56;3.70;99.90
5041;DHT22;2539;52.568;13.364;2023-11-21T13:23:22;3.60;99.90
5041;DHT22;2539;52.568;13.364;2023-11-21T13:25:49;3.70;99.90
5041;DHT22;2539;52.568;13.364;2023-11-21T13:28:16;3.70;99.90
5041;DHT22;2539;52.568;13.364;2023-11-21T13:30:44;3.60;99.90
5041;DHT22;2539;52.568;13.364;2023-11-21T13:33:11;3.60;99.90
5041;DHT22;2539;52.568;13.364;2023-11-21T13:35:44;3.60;99.90
5041;DHT22;2539;52.568;13.364;2023-11-21T13:38:15;3.70;99.90
5041;DHT22;2539;52.568;13.364;2023-11-21T13:40:51;3.70;99.90
5041;DHT22;2539;52.568;13.364;2023-11-21T13:43:21;3.70;99.90
5041;DHT22;2539;52.568;13.364;2023-11-21T13:45:49;3.80;99.90
5041;DHT22;2539;52.568;13.364;2023-11-21T13:48:27;3.70;99.90
5041;DHT22;2539;52.568;13.364;2023-11-21T13:51:07;3.80;99.90
5041;DHT22;2539;52.568;13.364;2023-11-21T13:53:44;3.60;99.90
5041;DHT22;2539;52.568;13.364;2023-11-21T13:56:14;3.70;99.90
5041;DHT22;2539;52.568;13.364;2023-11-21T13:58:45;3.60;99.90
5041;DHT22;2539;52.568;13.364;2023-11-21T14:01:18;3.50;99.90
5041;DHT22;2539;52.568;13.364;2023-11-21T14:04:01;3.40;99.90
5041;DHT22;2539;52.568;13.364;2023-11-21T14:06:43;3.30;99.90
5041;DHT22;2539;52.568;13.364;2023-11-21T14:09:22;3.20;99.90
5041;DHT22;2539;52.568;13.364;2023-11-21T14:11:54;3.20;99.90
5041;DHT22;2539;52.568;13.364;2023-11-21T14:14:24;3.20;99.90
5041;DHT22;2539;52.568;13.364;2023-11-21T14:16:50;3.20;99.90
5041;DHT22;2539;52.568;13.364;2023-11-21T14:19:17;3.20;99.90
5041;DHT22;2539;52.568;13.364;2023-11-21T14:21:43;3.20;99.90
5041;DHT22;2539;52.568;13.364;2023-11-21T14:24:09;3.10;99.90
5041;DHT22;2539;52.568;13.364;2023-11-21T14:26:36;3.10;99.90
5041;DHT22;2539;52.568;13.364;2023-11-21T14:29:02;3.10;99.90
5041;DHT22;2539;52.568;13.364;2023-11-21T14:31:29;3.10;99.90
5041;DHT22;2539;52.568;13.364;2023-11-21T14:33:57;3.00;99.90
5041;DHT22;2539;52.568;13.364;2023-11-21T14:36:24;3.00;99.90
5041;DHT22;2539;52.568;13.364;2023-11-21T14:38:50;2.90;99.90
5041;DHT22;2539;52.568;13.364;2023-11-21T14:41:16;2.90;99.90
5041;DHT22;2539;52.568;13.364;2023-11-21T14:43:43;2.80;99.90
5041;DHT22;2539;52.568;13.364;2023-11-21T14:46:11;2.80;99.90
5041;DHT22;2539;52.568;13.364;2023-11-21T14:48:40;2.70;99.90
5041;DHT22;2539;52.568;13.364;2023-11-21T14:51:11;2.70;99.90
5041;DHT22;2539;52.568;13.364;2023-11-21T14:53:59;2.80;99.90
5041;DHT22;2539;52.568;13.364;2023-11-21T14:56:32;2.70;99.90
5041;DHT22;2539;52.568;13.364;2023-11-21T14:59:03;2.70;99.90
5041;DHT22;2539;52.568;13.364;2023-11-21T15:01:38;2.70;99.90
5041;DHT22;2539;52.568;13.364;2023-11-21T15:04:19;2.70;99.90
5041;DHT22;2539;52.568;13.364;2023-11-21T15:07:05;2.70;99.90
5041;DHT22;2539;52.568;13.364;2023-11-21T15:09:32;2.70;99.90
5041;DHT22;2539;52.568;13.364;2023-11-21T15:11:59;2.70;99.90
5041;DHT22;2539;52.568;13.364;2023-11-21T15:14:41;2.70;99.90
5041;DHT22;2539;52.568;13.364;2023-11-21T15:17:09;2.80;99.90
5041;DHT22;2539;52.568;13.364;2023-11-21T15:19:35;2.70;99.90
5041;DHT22;2539;52.568;13.364;2023-11-21T15:22:02;2.70;99.90
5041;DHT22;2539;52.568;13.364;2023-11-21T15:24:29;2.70;99.90
5041;DHT22;2539;52.568;13.364;2023-11-21T15:26:55;2.70;99.90
5041;DHT22;2539;52.568;13.364;2023-11-21T15:29:21;2.60;99.90
5041;DHT22;2539;52.568;13.364;2023-11-21T15:31:48;2.70;99.90
5041;DHT22;2539;52.568;13.364;2023-11-21T15:34:17;2.70;99.90
5041;DHT22;2539;52.568;13.364;2023-11-21T15:36:43;2.70;99.90
5041;DHT22;2539;52.568;13.364;2023-11-21T15:39:09;2.80;99.90
5041;DHT22;2539;52.568;13.364;2023-11-21T15:41:38;2.80;99.90
5041;DHT22;2539;52.568;13.364;2023-11-21T15:44:08;2.80;99.90
5041;DHT22;2539;52.568;13.364;2023-11-21T15:46:37;2.60;99.90
5041;DHT22;2539;52.568;13.364;2023-11-21T15:49:05;2.70;99.90
5041;DHT22;2539;52.568;13.364;2023-11-21T15:51:42;2.70;99.90
5041;DHT22;2539;52.568;13.364;2023-11-21T15:54:11;2.70;99.90
5041;DHT22;2539;52.568;13.364;2023-11-21T15:56:38;2.60;99.90
5041;DHT22;2539;52.568;13.364;2023-11-21T15:59:04;2.70;99.90
5041;DHT22;2539;52.568;13.364;2023-11-21T16:01:31;2.70;99.90
5041;DHT22;2539;52.568;13.364;2023-11-21T16:03:58;2.60;99.90
5041;DHT22;2539;52.568;13.364;2023-11-21T16:06:27;2.60;99.90
5041;DHT22;2539;52.568;13.364;2023-11-21T16:08:53;2.60;99.90
5041;DHT22;2539;52.568;13.364;2023-11-21T16:11:20;2.70;99.90
5041;DHT22;2539;52.568;13.364;2023-11-21T16:13:46;2.70;99.90
5041;DHT22;2539;52.568;13.364;2023-11-21T16:16:14;2.80;99.90
5041;DHT22;2539;52.568;13.364;2023-11-21T16:18:43;2.70;99.90
5041;DHT22;2539;52.568;13.364;2023-11-21T16:21:11;2.70;99.90